This is the latest recevied weather packets stored in our database for station/object WX7FGZ-3. If no packets are shown the sender has not sent any weather packets the latest 10 day(s).
| Time | Temp. | Humidity | Pressure | Rain* | Wind** | Luminosity | Snow |
|---|---|---|---|---|---|---|---|
| 1777459931 | 5° C | 35% | 1014.5 hPa | 0 mm | - | - | - |
| 1777459330 | 5.56° C | 34% | 1014.5 hPa | 0 mm | - | - | - |
| 1777459029 | 5.56° C | 34% | 1014.4 hPa | 0 mm | - | - | - |
| 1777458729 | 5.56° C | 34% | 1014.6 hPa | 0 mm | - | - | - |
| 1777458429 | 6.11° C | 34% | 1014.5 hPa | 0 mm | - | - | - |
| 1777457828 | 6.11° C | 33% | 1014.5 hPa | 0 mm | - | - | - |
| 1777457228 | 6.67° C | 32% | 1014.4 hPa | 0 mm | - | - | - |
| 1777456927 | 6.67° C | 32% | 1014.4 hPa | 0 mm | - | - | - |
| 1777456327 | 6.67° C | 32% | 1014.4 hPa | 0 mm | - | - | - |
| 1777456027 | 6.67° C | 32% | 1014.4 hPa | 0 mm | - | - | - |
| 1777455726 | 6.67° C | 32% | 1014.6 hPa | 0 mm | - | - | - |
| 1777455426 | 6.67° C | 32% | 1014.6 hPa | 0 mm | - | - | - |
| 1777454826 | 6.11° C | 33% | 1014.8 hPa | 0 mm | - | - | - |
| 1777454525 | 6.11° C | 33% | 1014.8 hPa | 0 mm | - | - | - |
| 1777454225 | 6.11° C | 34% | 1014.9 hPa | 0 mm | - | - | - |
| 1777453624 | 5.56° C | 34% | 1015.1 hPa | 0 mm | - | - | - |
| 1777453024 | 5.56° C | 32% | 1015.1 hPa | 0 mm | - | - | - |
| 1777452724 | 5.56° C | 32% | 1015.3 hPa | 0 mm | - | - | - |
| 1777452423 | 5° C | 33% | 1015.3 hPa | 0 mm | - | - | - |
| 1777452123 | 4.44° C | 34% | 1015.4 hPa | 0 mm | - | - | - |
| 1777451823 | 3.89° C | 34% | 1015.4 hPa | 0 mm | - | - | - |
| 1777451523 | 3.33° C | 35% | 1015.5 hPa | 0 mm | - | - | - |
| 1777451222 | 3.33° C | 35% | 1015.5 hPa | 0 mm | - | - | - |
| 1777450621 | 2.78° C | 36% | 1015.7 hPa | 0 mm | - | - | - |
| 1777450021 | 2.22° C | 37% | 1015.8 hPa | 0 mm | - | - | - |
* Rain latest hour (hover to see other rain measurements)
** Current wind speed in m/s (hover to see current wind gust speed)